Ana Sayfa
METAR-TAF:

METAR-TAF

Havaalanları :

Eros Airport

Windhoek, Namibya

Enlem: 22-36-44S, Boylam: 017-04-50E, yükseklik: 1699 m

Güncel hava durumu gözlemi

Rapor saat 18:00 UTC de 6 saat ve 43 dakika önce yapıldı.
Rüzgar kuzeydan 8 kt
Sıcaklık 22°C
Nem 69%
Basınç 1021 hPa
Görüş mesafesi 10 km veya daha fazla
3500 ft yükseklikte az bulutlu, Kümülonimbus.
4000 ft yükseklikte parçalı bulutlu
9000 ft yükseklikte parçalı bulutlu

METAR: FYWE 271800Z 36008KT 9999 FEW035CB SCT040 SCT090 22/16 Q1021

Saat: 02:43 (00:43 UTC)

Tahmin

Rapor saat 20:00 UTC de 4 saat ve 43 dakika önce yapıldı.
Ayın 27'si saat 21 UTC'den ayın 28'si saat 06 UTC'ye kadar geçerli Tahmin
Rüzgar doğu/kuzeydoğudan 8 kt
Görüş mesafesi 10 km veya daha fazla

TAF: FYWE 272000Z 2721/2806 06008KT 9999 NSC

4.000'den fazla havaalanı için hava durumu gözlemleri ve tahminleri (METAR ve TAF raporları).

Kullanılabilir istasyonlar harita üzerinde sarı ve kırmızı noktalarla gösterilir.

İstasyonun adını görmek için fareyi noktanın üzerinde gezdirin.

Sonrasında hava gözlem ve tahminlerini görmek için tıklayın.

Haritayı değiştirmek için: yaklaştırmak için siyah artı işaretli yeşil düğmeye ve uzaklaştırmak için de eksi işaretli düğmeye hızla tıklayın; bitişik haritalar için yeşil okları kullanın.


METAR-TAF: